createdAt,value
2018-03-17T00:02:36.268Z,66.88
2018-03-17T00:17:34.550Z,66.83
2018-03-17T00:32:36.577Z,67.00
2018-03-17T00:47:36.904Z,66.61
2018-03-17T01:02:37.395Z,66.48
2018-03-17T01:17:42.232Z,66.56
2018-03-17T01:32:37.412Z,66.38
2018-03-17T01:47:34.734Z,66.39
2018-03-17T02:02:36.824Z,66.39
2018-03-17T02:17:38.010Z,66.27
2018-03-17T02:32:38.240Z,66.06
2018-03-17T02:47:37.037Z,66.09
2018-03-17T03:02:40.229Z,66.46
2018-03-17T03:17:36.432Z,66.95
2018-03-17T03:32:37.249Z,66.88
2018-03-17T03:47:36.560Z,66.92
2018-03-17T04:17:37.594Z,67.56
2018-03-17T04:32:38.980Z,67.58
2018-03-17T05:47:34.342Z,65.99
2018-03-17T06:02:34.950Z,65.13
2018-03-17T06:17:34.752Z,63.20
2018-03-17T06:32:34.660Z,62.52
2018-03-17T06:47:34.092Z,60.90
2018-03-17T07:02:35.139Z,58.25
2018-03-17T07:17:35.153Z,56.50
2018-03-17T07:32:35.171Z,53.42
2018-03-17T07:47:35.083Z,49.58
2018-03-17T08:02:33.931Z,44.95
2018-03-17T08:17:35.374Z,42.28
2018-03-17T08:32:35.776Z,38.69
2018-03-17T08:47:36.200Z,37.43
2018-03-17T09:02:34.650Z,36.87
2018-03-17T09:17:36.429Z,38.37
2018-03-17T09:32:36.698Z,35.92
2018-03-17T09:47:33.966Z,32.11
2018-03-17T10:02:34.912Z,30.98
2018-03-17T10:17:36.709Z,30.48
2018-03-17T10:32:34.290Z,28.08
2018-03-17T10:47:34.613Z,28.50
2018-03-17T11:02:40.249Z,34.75
2018-03-17T11:17:35.067Z,35.70
2018-03-17T11:32:34.818Z,34.57
2018-03-17T11:47:34.812Z,34.37
2018-03-17T12:02:34.465Z,31.63
2018-03-17T12:17:37.266Z,30.71
2018-03-17T12:32:35.085Z,29.78
2018-03-17T12:47:35.173Z,30.25
2018-03-17T13:02:34.684Z,30.29
2018-03-17T13:17:34.487Z,30.89
2018-03-17T13:32:46.200Z,31.42
2018-03-17T13:47:33.774Z,32.32
2018-03-17T14:02:35.098Z,33.16
2018-03-17T14:17:34.613Z,33.59
2018-03-17T14:32:34.848Z,34.30
2018-03-17T14:47:34.567Z,34.60
2018-03-17T15:02:35.188Z,34.97
2018-03-17T15:17:35.111Z,35.41
2018-03-17T15:32:35.006Z,35.96
2018-03-17T15:47:35.046Z,36.34
2018-03-17T16:02:34.562Z,36.04
2018-03-17T16:17:34.337Z,36.21
2018-03-17T16:32:35.385Z,36.77
2018-03-17T16:47:35.253Z,37.42
2018-03-17T17:02:35.707Z,37.92
2018-03-17T17:17:34.470Z,38.00
2018-03-17T17:32:34.398Z,38.19
2018-03-17T17:47:36.296Z,38.49
2018-03-17T18:02:34.940Z,38.72
2018-03-17T18:17:36.991Z,38.90
2018-03-17T18:32:36.683Z,39.07
2018-03-17T18:47:39.591Z,38.75
2018-03-17T19:02:43.561Z,38.80
2018-03-17T19:17:37.831Z,38.94
2018-03-17T19:32:35.086Z,38.42
2018-03-17T20:02:38.956Z,38.35
2018-03-17T20:17:34.215Z,38.94
2018-03-17T20:32:38.543Z,38.60
2018-03-17T20:47:49.849Z,38.41
2018-03-17T21:02:37.417Z,38.54
2018-03-17T21:17:43.870Z,38.69
2018-03-17T21:32:37.540Z,39.07
2018-03-17T21:47:36.259Z,39.19
2018-03-17T22:02:36.966Z,39.34
2018-03-17T22:32:47.292Z,38.81
2018-03-17T22:47:34.618Z,38.55
2018-03-17T23:02:36.038Z,38.64
2018-03-17T23:17:34.906Z,38.72
2018-03-17T23:32:34.895Z,38.82
2018-03-17T23:47:34.808Z,39.35
